Terminal Aerodrome Forecast
Issued by NWS

Home | Current Version | Previous Version | Text Only | Print | Product List | Glossary On
Versions: 1 2 3 4 5 6 7 8 9 10 11 12 13 14
000
FTUS42 KTBW 191131
TAFRSW
TAF
KRSW 191131Z 1912/2012 VRB03KT P6SM SCT025 SCT250
      TEMPO 1912/1913 5SM BR
     FM191400 24007KT P6SM FEW035 SCT250
     FM200200 VRB04KT P6SM FEW015 SCT250=

USA.gov is the U.S. government's official web portal to all federal, state and local government web resources and services.